Time;durP1;ratioP1;P1;durP2;ratioP2;P2;SDS_P1;SDS_P2;PMS_P1;PMS_P2;Temp;Humidity;BMP_temperature;BMP_pressure;BME280_temperature;BME280_humidity;BME280_pressure;Samples;Min_cycle;Max_cycle;Signal;HPM_P1;HPM_P2
2023/07/07 00:01:39;;;;;;;8.00;5.03;;;;;;;;;;5012045;28;20034;-75
2023/07/07 00:04:05;;;;;;;8.98;4.47;;;;;;;;;;5012072;28;20061;-74
2023/07/07 00:06:31;;;;;;;7.07;4.97;;;;;;;;;;5012316;28;20022;-75
2023/07/07 00:08:57;;;;;;;7.45;4.60;;;;;;;;;;5012162;28;20026;-75
2023/07/07 00:11:23;;;;;;;6.20;4.75;;;;;;;;;;5012219;28;20065;-75
2023/07/07 00:13:49;;;;;;;6.47;4.35;;;;;;;;;;5012233;28;20049;-74
2023/07/07 00:16:15;;;;;;;6.43;4.40;;;;;;;;;;5013315;28;20022;-75
2023/07/07 00:18:41;;;;;;;9.35;4.78;;;;;;;;;;5016233;28;20453;-74
2023/07/07 00:21:08;;;;;;;5.95;4.20;;;;;;;;;;5015692;28;20041;-74
2023/07/07 00:23:37;;;;;;;5.97;4.57;;;;;;;;;;5015751;28;20026;-74
2023/07/07 00:26:05;;;;;;;8.82;4.30;;;;;;;;;;5016126;28;20040;-74
2023/07/07 00:28:31;;;;;;;5.85;4.03;;;;;;;;;;5015730;28;20049;-74
2023/07/07 00:30:58;;;;;;;9.88;4.85;;;;;;;;;;5015519;28;20084;-74
2023/07/07 00:33:24;;;;;;;6.20;4.50;;;;;;;;;;5015599;28;20021;-74
2023/07/07 00:35:50;;;;;;;9.43;4.93;;;;;;;;;;5015497;28;20109;-74
2023/07/07 00:38:17;;;;;;;8.02;4.75;;;;;;;;;;5015473;28;20057;-75
2023/07/07 00:40:43;;;;;;;7.38;4.90;;;;;;;;;;5015426;28;20029;-74
2023/07/07 00:43:16;;;;;;;7.78;5.00;;;;;;;;;;5015445;28;20022;-74
2023/07/07 00:45:42;;;;;;;7.88;4.90;;;;;;;;;;5015261;28;20030;-75
2023/07/07 00:48:11;;;;;;;9.65;4.82;;;;;;;;;;5015301;28;20032;-74
2023/07/07 00:50:43;;;;;;;8.48;4.75;;;;;;;;;;5015182;28;20505;-74
2023/07/07 00:53:09;;;;;;;8.30;5.07;;;;;;;;;;5015215;28;20041;-74
2023/07/07 00:55:43;;;;;;;10.95;5.07;;;;;;;;;;5015179;28;20030;-75
2023/07/07 00:58:11;;;;;;;8.00;5.00;;;;;;;;;;5015174;28;20468;-74
2023/07/07 01:00:38;;;;;;;8.25;4.88;;;;;;;;;;5013494;28;20049;-74
2023/07/07 01:03:08;;;;;;;7.32;4.35;;;;;;;;;;5014456;28;20050;-75
2023/07/07 01:05:37;;;;;;;8.80;4.88;;;;;;;;;;5014896;28;20125;-74
2023/07/07 01:08:03;;;;;;;6.40;4.90;;;;;;;;;;5015346;28;20505;-74
2023/07/07 01:10:29;;;;;;;8.45;5.50;;;;;;;;;;5014919;28;20397;-74
2023/07/07 01:12:55;;;;;;;9.85;5.38;;;;;;;;;;5013994;28;20030;-74
2023/07/07 01:15:23;;;;;;;7.88;5.22;;;;;;;;;;5014695;28;20022;-74
2023/07/07 01:17:58;;;;;;;7.45;5.18;;;;;;;;;;5014645;28;20480;-74
2023/07/07 01:20:24;;;;;;;9.27;5.55;;;;;;;;;;5013563;28;20034;-74
2023/07/07 01:23:09;;;;;;;10.45;5.85;;;;;;;;;;5014611;28;20038;-74
2023/07/07 01:25:44;;;;;;;7.22;5.30;;;;;;;;;;5014402;28;20109;-74
2023/07/07 01:28:31;;;;;;;9.80;5.47;;;;;;;;;;5013806;28;20029;-74
2023/07/07 01:31:06;;;;;;;8.38;5.50;;;;;;;;;;5014269;28;20095;-74
2023/07/07 01:33:32;;;;;;;7.55;5.53;;;;;;;;;;5014247;28;20030;-74
2023/07/07 01:35:58;;;;;;;7.97;4.70;;;;;;;;;;5014303;28;20045;-74
2023/07/07 01:38:34;;;;;;;10.10;5.35;;;;;;;;;;5014242;28;20022;-74
2023/07/07 01:41:08;;;;;;;10.20;5.75;;;;;;;;;;5014249;28;20432;-74
2023/07/07 01:43:38;;;;;;;7.72;5.38;;;;;;;;;;5014483;28;20033;-74
2023/07/07 01:46:28;;;;;;;8.50;5.85;;;;;;;;;;5013992;28;20452;-74
2023/07/07 01:49:20;;;;;;;8.55;6.00;;;;;;;;;;5008450;28;20045;-74
2023/07/07 01:51:59;;;;;;;10.80;5.60;;;;;;;;;;5012385;28;20117;-74
2023/07/07 01:54:26;;;;;;;10.63;5.90;;;;;;;;;;5014039;28;20457;-74
2023/07/07 01:56:53;;;;;;;8.93;6.35;;;;;;;;;;5013848;28;20373;-74
2023/07/07 01:59:19;;;;;;;8.80;5.10;;;;;;;;;;5013983;28;20034;-74
2023/07/07 02:01:46;;;;;;;10.10;5.45;;;;;;;;;;5013868;28;20029;-74
2023/07/07 02:04:12;;;;;;;8.27;5.43;;;;;;;;;;5013296;28;20058;-74
2023/07/07 02:06:38;;;;;;;9.30;5.18;;;;;;;;;;5014431;28;20151;-74
2023/07/07 02:09:04;;;;;;;8.05;5.35;;;;;;;;;;5013820;28;20104;-74
2023/07/07 02:11:30;;;;;;;7.95;5.68;;;;;;;;;;5013652;28;20033;-75
2023/07/07 02:13:56;;;;;;;11.57;5.65;;;;;;;;;;5012344;28;20033;-75
2023/07/07 02:16:22;;;;;;;10.57;6.15;;;;;;;;;;5013719;28;20072;-75
2023/07/07 02:18:48;;;;;;;7.00;6.00;;;;;;;;;;5013555;28;20022;-75
2023/07/07 02:21:18;;;;;;;10.10;5.80;;;;;;;;;;5013990;28;20030;-75
2023/07/07 02:23:44;;;;;;;9.65;6.13;;;;;;;;;;5013685;28;20534;-75
2023/07/07 02:26:11;;;;;;;9.23;6.05;;;;;;;;;;5013505;28;20071;-74
2023/07/07 02:28:37;;;;;;;8.57;6.25;;;;;;;;;;5013418;28;20029;-75
2023/07/07 02:31:03;;;;;;;10.15;6.43;;;;;;;;;;5013359;28;20040;-74
2023/07/07 02:33:32;;;;;;;10.50;6.43;;;;;;;;;;5012083;28;20034;-74
2023/07/07 02:36:01;;;;;;;9.93;6.35;;;;;;;;;;5013314;28;20030;-74
2023/07/07 02:38:27;;;;;;;10.45;6.15;;;;;;;;;;5012949;28;20053;-74
2023/07/07 02:40:53;;;;;;;8.65;5.95;;;;;;;;;;5013460;28;20030;-74
2023/07/07 02:43:19;;;;;;;8.55;6.25;;;;;;;;;;5011866;28;20029;-74
2023/07/07 02:45:49;;;;;;;10.90;6.40;;;;;;;;;;5013172;28;20026;-75
2023/07/07 02:48:17;;;;;;;9.43;6.28;;;;;;;;;;5012884;28;20061;-75
2023/07/07 02:50:43;;;;;;;8.95;5.72;;;;;;;;;;5013286;28;20057;-75
2023/07/07 02:53:09;;;;;;;10.57;5.38;;;;;;;;;;5013276;28;20535;-75
2023/07/07 02:55:35;;;;;;;8.40;6.05;;;;;;;;;;5012784;28;20030;-75
2023/07/07 02:58:01;;;;;;;10.88;7.00;;;;;;;;;;5012933;28;20453;-74
2023/07/07 03:00:28;;;;;;;10.48;6.22;;;;;;;;;;5011616;28;20485;-75
2023/07/07 03:02:54;;;;;;;10.70;6.60;;;;;;;;;;5011678;28;20056;-75
2023/07/07 03:05:20;;;;;;;9.80;6.57;;;;;;;;;;5012913;28;20026;-74
2023/07/07 03:07:46;;;;;;;10.77;6.70;;;;;;;;;;5013035;28;20048;-74
2023/07/07 03:10:12;;;;;;;14.35;6.78;;;;;;;;;;5012864;28;20104;-75
2023/07/07 03:12:38;;;;;;;11.07;6.50;;;;;;;;;;5012728;28;20057;-74
2023/07/07 03:15:04;;;;;;;10.98;6.85;;;;;;;;;;5012708;28;20029;-74
2023/07/07 03:17:31;;;;;;;9.80;6.97;;;;;;;;;;5012487;28;20022;-74
2023/07/07 03:19:57;;;;;;;11.85;7.18;;;;;;;;;;5012587;28;20018;-74
2023/07/07 03:22:23;;;;;;;10.57;6.82;;;;;;;;;;5013035;28;20030;-75
2023/07/07 03:24:52;;;;;;;8.93;6.20;;;;;;;;;;5012692;28;20030;-75
2023/07/07 03:27:18;;;;;;;12.00;6.47;;;;;;;;;;5012650;28;20030;-74
2023/07/07 03:29:43;;;;;;;10.32;6.90;;;;;;;;;;5011308;28;20034;-74
2023/07/07 03:32:09;;;;;;;12.35;7.28;;;;;;;;;;5012517;28;20026;-74
2023/07/07 03:34:36;;;;;;;11.68;6.85;;;;;;;;;;5012558;28;20025;-74
2023/07/07 03:37:03;;;;;;;15.18;7.68;;;;;;;;;;5012836;28;20018;-75
2023/07/07 03:39:29;;;;;;;11.98;7.32;;;;;;;;;;5012493;28;20492;-74
2023/07/07 03:41:55;;;;;;;11.82;7.80;;;;;;;;;;5012817;28;20142;-74
2023/07/07 03:44:22;;;;;;;14.57;7.70;;;;;;;;;;5012494;28;20449;-74
2023/07/07 03:46:48;;;;;;;12.30;7.60;;;;;;;;;;5012964;28;20030;-74
2023/07/07 03:49:14;;;;;;;14.60;7.80;;;;;;;;;;5012568;28;20030;-75
2023/07/07 03:51:40;;;;;;;14.45;8.65;;;;;;;;;;5015752;28;20045;-75
2023/07/07 03:54:06;;;;;;;14.18;8.25;;;;;;;;;;5016204;28;20105;-75
2023/07/07 03:56:32;;;;;;;14.48;8.50;;;;;;;;;;5016333;28;20807;-75
2023/07/07 03:58:58;;;;;;;18.88;7.90;;;;;;;;;;5016299;28;20392;-75
2023/07/07 04:01:24;;;;;;;14.95;9.02;;;;;;;;;;5016287;28;20037;-74
2023/07/07 04:03:57;;;;;;;13.25;9.23;;;;;;;;;;5015966;28;20042;-75
2023/07/07 04:06:23;;;;;;;15.35;8.48;;;;;;;;;;5016442;28;20030;-75
2023/07/07 04:08:49;;;;;;;13.05;9.57;;;;;;;;;;5016099;28;20034;-75
2023/07/07 04:11:19;;;;;;;15.13;9.88;;;;;;;;;;5016054;28;20483;-75
2023/07/07 04:13:45;;;;;;;15.73;9.07;;;;;;;;;;5016493;28;20037;-75
2023/07/07 04:16:13;;;;;;;12.93;9.13;;;;;;;;;;5016022;28;20032;-75
2023/07/07 04:18:40;;;;;;;13.45;9.20;;;;;;;;;;5015986;28;20457;-75
2023/07/07 04:21:07;;;;;;;12.02;8.52;;;;;;;;;;5015939;28;20022;-75
2023/07/07 04:23:34;;;;;;;13.75;8.80;;;;;;;;;;5015838;28;20030;-75
2023/07/07 04:26:00;;;;;;;12.75;7.78;;;;;;;;;;5015891;28;20053;-75
2023/07/07 04:28:29;;;;;;;14.60;8.77;;;;;;;;;;5015908;28;20026;-75
2023/07/07 04:30:56;;;;;;;11.10;7.72;;;;;;;;;;5015954;28;20014;-75
2023/07/07 04:33:23;;;;;;;14.80;8.93;;;;;;;;;;5015886;28;20064;-75
2023/07/07 04:35:57;;;;;;;12.00;8.48;;;;;;;;;;5015823;28;20029;-75
2023/07/07 04:38:30;;;;;;;10.18;7.32;;;;;;;;;;5015690;28;20032;-75
2023/07/07 04:41:16;;;;;;;10.18;7.82;;;;;;;;;;5015936;28;20071;-75
2023/07/07 04:43:44;;;;;;;11.15;7.95;;;;;;;;;;5015401;28;20049;-75
2023/07/07 04:46:11;;;;;;;11.68;8.00;;;;;;;;;;5015506;28;20112;-75
2023/07/07 04:48:37;;;;;;;11.65;7.57;;;;;;;;;;5015436;28;20026;-75
2023/07/07 04:51:06;;;;;;;11.80;8.13;;;;;;;;;;5015351;28;20330;-76
2023/07/07 04:53:32;;;;;;;10.50;7.93;;;;;;;;;;5015699;28;20026;-75
2023/07/07 04:55:58;;;;;;;10.65;7.82;;;;;;;;;;5015395;28;20037;-76
2023/07/07 04:58:28;;;;;;;13.45;8.20;;;;;;;;;;5015564;28;20104;-76
2023/07/07 05:01:04;;;;;;;9.43;8.43;;;;;;;;;;5015045;28;20089;-76
2023/07/07 05:03:30;;;;;;;9.02;8.10;;;;;;;;;;5014651;28;20046;-76
2023/07/07 05:05:57;;;;;;;10.55;7.90;;;;;;;;;;5015068;28;20026;-76
2023/07/07 05:08:23;;;;;;;9.88;7.78;;;;;;;;;;5015420;28;20033;-76
2023/07/07 05:10:49;;;;;;;8.90;7.28;;;;;;;;;;5015633;28;20080;-76
2023/07/07 05:13:15;;;;;;;9.40;7.82;;;;;;;;;;5015692;28;20029;-76
2023/07/07 05:15:41;;;;;;;7.18;6.18;;;;;;;;;;5015788;28;20033;-77
2023/07/07 05:18:07;;;;;;;8.63;7.15;;;;;;;;;;5015488;28;20033;-77
2023/07/07 05:20:33;;;;;;;11.38;7.40;;;;;;;;;;5015538;28;20034;-77
2023/07/07 05:22:59;;;;;;;10.68;7.45;;;;;;;;;;5015647;28;20032;-77
2023/07/07 05:25:25;;;;;;;8.90;7.20;;;;;;;;;;5015532;28;20101;-77
2023/07/07 05:27:51;;;;;;;7.38;6.30;;;;;;;;;;5014520;28;20104;-77
2023/07/07 05:30:17;;;;;;;8.20;7.35;;;;;;;;;;5014492;28;20084;-77
2023/07/07 05:32:43;;;;;;;9.73;8.10;;;;;;;;;;5014168;28;20030;-77
2023/07/07 05:35:09;;;;;;;8.90;7.97;;;;;;;;;;5014185;28;20041;-77
2023/07/07 05:37:35;;;;;;;8.82;7.78;;;;;;;;;;5014181;28;20392;-77
2023/07/07 05:40:01;;;;;;;9.18;7.30;;;;;;;;;;5014578;28;20076;-77
2023/07/07 05:42:28;;;;;;;8.57;7.43;;;;;;;;;;5014885;28;20469;-78
2023/07/07 05:44:54;;;;;;;8.63;7.82;;;;;;;;;;5015877;28;20037;-77
2023/07/07 05:47:20;;;;;;;11.30;7.97;;;;;;;;;;5013893;28;20030;-77
2023/07/07 05:49:46;;;;;;;8.98;7.60;;;;;;;;;;5014015;28;20041;-78
2023/07/07 05:52:14;;;;;;;10.35;7.18;;;;;;;;;;5013952;28;20076;-77
2023/07/07 05:54:40;;;;;;;7.78;6.97;;;;;;;;;;5014002;28;20436;-77
2023/07/07 05:57:07;;;;;;;8.00;7.20;;;;;;;;;;5013853;28;20464;-78
2023/07/07 05:59:33;;;;;;;7.97;7.15;;;;;;;;;;5014017;28;20600;-78
2023/07/07 06:01:59;;;;;;;8.35;5.82;;;;;;;;;;5013862;28;20038;-78
2023/07/07 06:04:25;;;;;;;9.30;7.25;;;;;;;;;;5013515;28;20439;-78
2023/07/07 06:06:52;;;;;;;8.60;6.60;;;;;;;;;;5013592;28;20041;-78
2023/07/07 06:09:18;;;;;;;7.63;6.82;;;;;;;;;;5012472;28;20055;-78
2023/07/07 06:11:44;;;;;;;8.05;6.80;;;;;;;;;;5013715;28;20025;-78
2023/07/07 06:14:10;;;;;;;7.63;6.15;;;;;;;;;;5012621;28;20407;-78
2023/07/07 06:16:36;;;;;;;9.43;5.85;;;;;;;;;;5012385;28;20026;-78
2023/07/07 06:19:02;;;;;;;7.30;5.82;;;;;;;;;;5013850;28;20033;-77
2023/07/07 06:21:28;;;;;;;7.30;6.22;;;;;;;;;;5013547;28;20029;-77
2023/07/07 06:23:54;;;;;;;7.22;5.80;;;;;;;;;;5013443;28;20041;-77
2023/07/07 06:26:20;;;;;;;6.20;5.60;;;;;;;;;;5013423;28;20428;-77
2023/07/07 06:28:45;;;;;;;8.95;5.95;;;;;;;;;;5013502;28;20075;-76
2023/07/07 06:31:11;;;;;;;7.35;5.65;;;;;;;;;;5011808;28;20083;-76
2023/07/07 06:33:39;;;;;;;6.50;5.63;;;;;;;;;;5013596;28;20101;-76
2023/07/07 06:36:05;;;;;;;8.10;6.00;;;;;;;;;;5013603;28;20079;-76
2023/07/07 06:38:31;;;;;;;7.07;5.95;;;;;;;;;;5013202;28;20465;-77
2023/07/07 06:40:57;;;;;;;9.07;6.45;;;;;;;;;;5013295;28;20421;-77
2023/07/07 06:43:23;;;;;;;7.53;5.65;;;;;;;;;;5013193;28;20026;-77
2023/07/07 06:45:50;;;;;;;5.93;5.43;;;;;;;;;;5013089;28;20033;-77
2023/07/07 06:48:16;;;;;;;6.63;5.03;;;;;;;;;;5013143;28;20026;-77
2023/07/07 06:50:42;;;;;;;6.60;5.00;;;;;;;;;;5013132;28;20018;-77
2023/07/07 06:53:10;;;;;;;5.88;4.88;;;;;;;;;;5012756;28;20311;-78
2023/07/07 06:55:36;;;;;;;6.35;4.30;;;;;;;;;;5013113;28;20127;-76
2023/07/07 06:58:02;;;;;;;5.38;4.40;;;;;;;;;;5012603;28;20117;-77
2023/07/07 07:00:30;;;;;;;4.55;4.10;;;;;;;;;;5012455;28;20057;-77
2023/07/07 07:02:56;;;;;;;5.95;4.10;;;;;;;;;;5012238;28;20054;-78
2023/07/07 07:05:22;;;;;;;4.90;3.78;;;;;;;;;;5012525;28;20065;-75
2023/07/07 07:07:48;;;;;;;4.55;4.15;;;;;;;;;;5011160;28;20068;-75
2023/07/07 07:10:14;;;;;;;6.03;4.45;;;;;;;;;;5012662;28;20027;-76
2023/07/07 07:12:40;;;;;;;5.47;3.88;;;;;;;;;;5001478;28;20585;-76
2023/07/07 07:15:07;;;;;;;4.68;3.88;;;;;;;;;;4992932;28;20022;-76
2023/07/07 07:17:34;;;;;;;5.22;4.22;;;;;;;;;;5002546;28;20095;-76
2023/07/07 07:20:00;;;;;;;6.22;4.07;;;;;;;;;;5012440;28;20026;-76
2023/07/07 07:22:26;;;;;;;4.18;3.53;;;;;;;;;;5012400;28;20109;-77
2023/07/07 07:24:52;;;;;;;4.75;4.13;;;;;;;;;;5012300;28;20461;-76
2023/07/07 07:27:18;;;;;;;5.40;3.60;;;;;;;;;;5010967;28;20033;-77
2023/07/07 07:29:45;;;;;;;6.88;3.45;;;;;;;;;;4994713;28;20026;-77
2023/07/07 07:32:12;;;;;;;3.85;3.28;;;;;;;;;;4992838;28;20101;-76
2023/07/07 07:34:38;;;;;;;4.93;3.33;;;;;;;;;;4992761;28;20037;-76
2023/07/07 07:37:04;;;;;;;5.47;3.38;;;;;;;;;;4992723;28;20469;-76
2023/07/07 07:39:30;;;;;;;5.15;3.42;;;;;;;;;;4992801;28;20109;-77
2023/07/07 07:41:56;;;;;;;5.68;3.78;;;;;;;;;;4992721;28;20114;-77
2023/07/07 07:44:24;;;;;;;6.45;3.33;;;;;;;;;;4992748;28;20022;-77
2023/07/07 07:46:51;;;;;;;4.07;3.08;;;;;;;;;;4992938;28;20026;-77
2023/07/07 07:49:17;;;;;;;4.43;3.38;;;;;;;;;;4992746;28;20030;-77
2023/07/07 07:51:44;;;;;;;6.05;3.22;;;;;;;;;;4992341;28;20037;-77
2023/07/07 07:54:12;;;;;;;3.28;2.58;;;;;;;;;;5007724;28;20081;-78
2023/07/07 07:56:38;;;;;;;3.30;2.70;;;;;;;;;;4992898;28;20595;-77
2023/07/07 07:59:05;;;;;;;3.15;2.60;;;;;;;;;;4992470;28;20022;-77
2023/07/07 08:01:31;;;;;;;4.38;2.50;;;;;;;;;;4992243;28;20105;-77
2023/07/07 08:03:57;;;;;;;5.47;2.70;;;;;;;;;;4992137;28;20134;-77
2023/07/07 08:06:23;;;;;;;4.43;2.63;;;;;;;;;;4992608;28;20038;-78
2023/07/07 08:08:49;;;;;;;3.78;2.55;;;;;;;;;;4992648;28;20525;-78
2023/07/07 08:11:18;;;;;;;5.38;2.47;;;;;;;;;;4992429;28;20085;-77
2023/07/07 08:13:44;;;;;;;3.85;2.25;;;;;;;;;;4992523;28;20038;-77
2023/07/07 08:16:10;;;;;;;3.75;2.50;;;;;;;;;;4992537;28;20405;-77
2023/07/07 08:18:37;;;;;;;3.78;2.50;;;;;;;;;;4992294;28;20050;-76
2023/07/07 08:21:03;;;;;;;2.95;2.42;;;;;;;;;;4992229;28;20421;-77
2023/07/07 08:23:29;;;;;;;3.28;2.28;;;;;;;;;;4992169;28;20027;-77
2023/07/07 08:25:55;;;;;;;4.60;2.80;;;;;;;;;;4992578;28;20109;-77
2023/07/07 08:28:21;;;;;;;3.78;2.42;;;;;;;;;;4992237;28;20027;-78
2023/07/07 08:30:47;;;;;;;5.20;2.40;;;;;;;;;;4992581;28;20029;-77
2023/07/07 08:33:13;;;;;;;2.67;2.38;;;;;;;;;;5000532;28;20042;-77
2023/07/07 08:35:39;;;;;;;3.35;2.10;;;;;;;;;;5011705;28;20033;-76
2023/07/07 08:38:05;;;;;;;3.53;2.40;;;;;;;;;;5014052;28;20386;-76
2023/07/07 08:40:35;;;;;;;3.72;2.30;;;;;;;;;;5015154;28;20098;-76
2023/07/07 08:43:01;;;;;;;6.65;2.40;;;;;;;;;;5025299;28;20057;-77
2023/07/07 08:45:27;;;;;;;4.07;2.20;;;;;;;;;;5034922;28;20030;-76
2023/07/07 08:47:57;;;;;;;5.68;2.30;;;;;;;;;;5034565;28;20022;-76
2023/07/07 08:50:41;;;;;;;3.17;2.22;;;;;;;;;;5034995;28;20030;-77
2023/07/07 08:53:26;;;;;;;4.05;2.03;;;;;;;;;;5034956;28;20025;-76
2023/07/07 08:55:56;;;;;;;5.45;2.22;;;;;;;;;;5034634;28;20496;-77
2023/07/07 08:58:45;;;;;;;3.83;2.22;;;;;;;;;;5035090;28;20390;-77
2023/07/07 09:01:25;;;;;;;3.08;2.10;;;;;;;;;;5029148;28;20052;-77
2023/07/07 09:04:10;;;;;;;2.72;2.20;;;;;;;;;;5033299;28;20054;-76
2023/07/07 09:06:48;;;;;;;2.47;1.95;;;;;;;;;;5034559;28;20032;-76
2023/07/07 09:09:20;;;;;;;4.93;2.30;;;;;;;;;;5034680;28;20423;-76
2023/07/07 09:12:03;;;;;;;4.00;2.20;;;;;;;;;;5034208;28;20104;-76
2023/07/07 09:14:29;;;;;;;3.53;2.40;;;;;;;;;;5033257;28;20718;-76
2023/07/07 09:17:05;;;;;;;2.35;2.15;;;;;;;;;;5034568;28;20029;-76
2023/07/07 09:19:36;;;;;;;2.50;2.03;;;;;;;;;;5034622;28;20060;-76
2023/07/07 09:22:07;;;;;;;2.28;1.90;;;;;;;;;;5034497;28;20022;-76
2023/07/07 09:24:44;;;;;;;3.30;2.33;;;;;;;;;;5034535;28;20025;-76
2023/07/07 09:27:14;;;;;;;5.18;2.35;;;;;;;;;;5034463;28;20026;-76
2023/07/07 09:29:41;;;;;;;3.22;2.47;;;;;;;;;;5034095;28;20512;-76
2023/07/07 09:32:11;;;;;;;2.17;1.92;;;;;;;;;;5034416;28;20026;-76
2023/07/07 09:34:37;;;;;;;3.63;2.40;;;;;;;;;;5034183;28;20396;-75
2023/07/07 09:37:15;;;;;;;3.90;1.80;;;;;;;;;;5034500;28;20061;-76
2023/07/07 09:39:57;;;;;;;2.63;2.08;;;;;;;;;;5034115;28;20037;-75
2023/07/07 09:42:32;;;;;;;2.63;2.25;;;;;;;;;;5033972;28;20451;-76
2023/07/07 09:45:06;;;;;;;2.75;2.03;;;;;;;;;;5034225;28;20030;-76
2023/07/07 09:47:32;;;;;;;3.40;2.67;;;;;;;;;;5033630;28;20097;-76
2023/07/07 09:50:02;;;;;;;3.35;2.40;;;;;;;;;;5033741;28;20041;-74
2023/07/07 09:52:30;;;;;;;3.00;2.30;;;;;;;;;;5033703;28;20026;-75
2023/07/07 09:54:56;;;;;;;;;;;;;;;;;;5034157;28;20029;-75
2023/07/07 09:57:27;;;;;;;4.22;2.00;;;;;;;;;;5033767;28;19911;-76
2023/07/07 09:59:55;;;;;;;2.65;2.28;;;;;;;;;;5033692;28;20109;-75
2023/07/07 10:02:23;;;;;;;5.10;2.55;;;;;;;;;;5019349;28;20120;-75
2023/07/07 10:04:53;;;;;;;3.08;2.53;;;;;;;;;;5013532;28;20048;-75
2023/07/07 10:07:19;;;;;;;3.47;2.42;;;;;;;;;;5013541;28;20077;-75
2023/07/07 10:09:45;;;;;;;4.00;2.30;;;;;;;;;;5002266;28;20073;-75
2023/07/07 10:12:14;;;;;;;3.20;2.10;;;;;;;;;;5013805;28;20086;-74
2023/07/07 10:14:41;;;;;;;3.58;2.28;;;;;;;;;;5013501;28;20034;-75
2023/07/07 10:17:10;;;;;;;2.92;2.00;;;;;;;;;;5013641;28;20398;-75
2023/07/07 10:19:43;;;;;;;2.63;2.13;;;;;;;;;;5013439;28;20102;-74
2023/07/07 10:22:13;;;;;;;2.83;2.10;;;;;;;;;;5013346;28;20116;-75
2023/07/07 10:24:40;;;;;;;2.55;2.10;;;;;;;;;;5013148;28;20480;-75
2023/07/07 10:27:10;;;;;;;3.50;2.35;;;;;;;;;;5012897;28;20037;-75
2023/07/07 10:29:40;;;;;;;2.67;2.08;;;;;;;;;;5013113;28;20064;-74
2023/07/07 10:32:11;;;;;;;3.20;2.53;;;;;;;;;;5013591;28;20033;-75
2023/07/07 10:34:38;;;;;;;3.92;2.50;;;;;;;;;;4993626;28;20092;-74
2023/07/07 10:37:15;;;;;;;4.50;2.40;;;;;;;;;;5006620;28;20092;-74
2023/07/07 10:39:41;;;;;;;2.40;1.95;;;;;;;;;;4993324;28;20125;-74
2023/07/07 10:42:09;;;;;;;4.25;2.10;;;;;;;;;;4993354;28;20156;-75
2023/07/07 10:44:35;;;;;;;4.47;2.40;;;;;;;;;;4995535;28;20053;-74
2023/07/07 10:47:01;;;;;;;2.40;2.20;;;;;;;;;;5013013;28;20407;-75
2023/07/07 10:49:27;;;;;;;2.97;2.00;;;;;;;;;;5013019;28;20449;-75
2023/07/07 10:52:12;;;;;;;3.95;2.47;;;;;;;;;;5012966;28;20033;-75
2023/07/07 10:54:44;;;;;;;4.03;2.53;;;;;;;;;;5013222;28;20026;-74
2023/07/07 10:57:17;;;;;;;3.47;2.50;;;;;;;;;;5012911;28;20373;-74
2023/07/07 11:00:13;;;;;;;4.75;2.38;;;;;;;;;;5012291;28;20101;-74
2023/07/07 11:02:39;;;;;;;4.07;2.20;;;;;;;;;;5000271;28;20049;-74
2023/07/07 11:05:05;;;;;;;3.08;2.38;;;;;;;;;;5012250;28;20091;-74
2023/07/07 11:07:32;;;;;;;3.35;2.70;;;;;;;;;;5012617;28;20485;-74
2023/07/07 11:10:04;;;;;;;3.58;2.13;;;;;;;;;;5012981;28;20029;-74
2023/07/07 11:12:36;;;;;;;3.65;2.25;;;;;;;;;;5012424;28;20084;-74
2023/07/07 11:15:12;;;;;;;2.85;2.38;;;;;;;;;;5005671;28;20041;-74
2023/07/07 11:17:47;;;;;;;3.78;2.30;;;;;;;;;;5012677;28;20110;-74
2023/07/07 11:20:33;;;;;;;5.05;2.50;;;;;;;;;;5012621;28;20083;-74
2023/07/07 11:22:59;;;;;;;3.08;2.40;;;;;;;;;;5012574;28;20436;-74
2023/07/07 11:25:42;;;;;;;4.22;2.30;;;;;;;;;;5011185;28;20062;-74
2023/07/07 11:28:13;;;;;;;3.83;2.33;;;;;;;;;;5012456;28;20531;-74
2023/07/07 11:30:45;;;;;;;5.68;2.50;;;;;;;;;;5012503;28;20041;-74
2023/07/07 11:33:23;;;;;;;3.83;2.78;;;;;;;;;;5012346;28;20030;-74
2023/07/07 11:36:05;;;;;;;4.40;2.35;;;;;;;;;;5012450;28;20274;-74
2023/07/07 11:38:34;;;;;;;2.85;2.20;;;;;;;;;;5012460;28;20026;-74
2023/07/07 11:41:00;;;;;;;;;;;;;;;;;;5012739;28;20030;-74
2023/07/07 11:43:42;;;;;;;3.00;2.17;;;;;;;;;;5012507;28;19983;-74
2023/07/07 11:46:20;;;;;;;3.97;2.15;;;;;;;;;;5012366;28;20034;-74
2023/07/07 11:48:51;;;;;;;4.10;2.50;;;;;;;;;;5012322;28;20026;-74
2023/07/07 11:51:31;;;;;;;4.35;2.40;;;;;;;;;;5012272;28;20152;-74
2023/07/07 11:54:20;;;;;;;2.88;2.33;;;;;;;;;;5012691;28;20037;-74
2023/07/07 11:56:52;;;;;;;4.63;2.13;;;;;;;;;;5016172;28;20036;-75
2023/07/07 11:59:41;;;;;;;4.13;2.50;;;;;;;;;;5031908;28;20228;-75
2023/07/07 12:02:07;;;;;;;;;;;;;;;;;;5032486;28;20030;-74
2023/07/07 12:04:43;;;;;;;3.20;2.33;;;;;;;;;;5031475;28;19924;-75
2023/07/07 12:07:21;;;;;;;4.32;2.10;;;;;;;;;;5031921;28;20018;-75
2023/07/07 12:09:51;;;;;;;4.13;2.20;;;;;;;;;;5031830;28;20523;-74
2023/07/07 12:12:37;;;;;;;3.97;2.05;;;;;;;;;;4997623;28;20042;-74
2023/07/07 12:15:15;;;;;;;3.42;2.10;;;;;;;;;;5015752;28;20022;-75
2023/07/07 12:17:46;;;;;;;3.10;2.35;;;;;;;;;;5015827;28;20057;-75
2023/07/07 12:20:12;;;;;;;3.45;2.17;;;;;;;;;;5016255;28;20026;-75
2023/07/07 12:22:40;;;;;;;4.88;2.45;;;;;;;;;;5016054;28;20045;-74
2023/07/07 12:25:06;;;;;;;4.30;2.63;;;;;;;;;;5016811;28;20085;-75
2023/07/07 12:27:39;;;;;;;4.55;2.40;;;;;;;;;;5017218;28;20045;-74
2023/07/07 12:30:07;;;;;;;3.28;2.28;;;;;;;;;;5016476;28;20026;-74
2023/07/07 12:32:33;;;;;;;2.63;2.00;;;;;;;;;;5015881;28;20108;-74
2023/07/07 12:35:07;;;;;;;4.05;2.10;;;;;;;;;;5015309;28;20037;-74
2023/07/07 12:37:34;;;;;;;3.10;2.20;;;;;;;;;;5016641;28;20029;-74
2023/07/07 12:40:05;;;;;;;2.92;2.13;;;;;;;;;;5016106;28;20030;-74
2023/07/07 12:42:32;;;;;;;4.00;2.33;;;;;;;;;;5016405;28;20038;-74
2023/07/07 12:45:07;;;;;;;4.70;2.65;;;;;;;;;;5016194;28;20099;-74
2023/07/07 12:47:33;;;;;;;4.18;2.80;;;;;;;;;;5015672;28;20539;-74
2023/07/07 12:50:01;;;;;;;3.33;2.10;;;;;;;;;;5012839;28;20022;-74
2023/07/07 12:52:30;;;;;;;3.28;2.20;;;;;;;;;;5014730;28;20034;-74
2023/07/07 12:55:03;;;;;;;2.90;2.22;;;;;;;;;;5014931;28;20509;-74
2023/07/07 12:57:29;;;;;;;3.17;2.22;;;;;;;;;;5015128;28;20458;-74
2023/07/07 13:00:15;;;;;;;4.95;2.60;;;;;;;;;;5015227;28;20362;-75
2023/07/07 13:02:56;;;;;;;3.42;2.42;;;;;;;;;;5015022;28;20026;-74
2023/07/07 13:05:23;;;;;;;3.35;2.28;;;;;;;;;;5014978;28;20037;-74
2023/07/07 13:08:00;;;;;;;4.72;2.47;;;;;;;;;;5015066;28;20072;-74
2023/07/07 13:10:34;;;;;;;3.90;2.42;;;;;;;;;;5015232;28;20030;-75
2023/07/07 13:13:17;;;;;;;4.25;2.90;;;;;;;;;;5019028;28;20025;-74
2023/07/07 13:15:43;;;;;;;3.22;2.22;;;;;;;;;;5015928;28;20036;-75
2023/07/07 13:18:11;;;;;;;3.70;2.58;;;;;;;;;;5014808;28;20029;-75
2023/07/07 13:20:40;;;;;;;4.28;2.50;;;;;;;;;;5014680;28;20026;-75
2023/07/07 13:23:09;;;;;;;3.42;2.70;;;;;;;;;;5013993;28;20080;-75
2023/07/07 13:25:37;;;;;;;4.78;3.00;;;;;;;;;;5014507;28;20030;-75
2023/07/07 13:28:04;;;;;;;4.22;2.55;;;;;;;;;;5014797;28;20072;-75
2023/07/07 13:30:35;;;;;;;3.28;2.42;;;;;;;;;;5014357;28;20037;-75
2023/07/07 13:33:05;;;;;;;4.32;2.75;;;;;;;;;;5012903;28;20033;-75
2023/07/07 13:35:31;;;;;;;3.15;2.38;;;;;;;;;;5014165;28;20030;-75
2023/07/07 13:38:06;;;;;;;3.78;2.92;;;;;;;;;;5014623;28;20461;-75
2023/07/07 13:40:35;;;;;;;5.07;2.38;;;;;;;;;;5013678;28;20467;-75
2023/07/07 13:43:01;;;;;;;3.47;2.40;;;;;;;;;;5003244;28;20046;-74
2023/07/07 13:45:27;;;;;;;4.18;2.60;;;;;;;;;;5014032;28;20022;-75
2023/07/07 13:47:53;;;;;;;4.65;2.38;;;;;;;;;;5014115;28;20030;-75
2023/07/07 13:50:24;;;;;;;4.05;2.65;;;;;;;;;;5014125;28;20084;-75
2023/07/07 13:52:55;;;;;;;5.32;2.90;;;;;;;;;;5013970;28;20053;-75
2023/07/07 13:55:21;;;;;;;3.92;2.65;;;;;;;;;;5014094;28;20030;-75
2023/07/07 13:57:47;;;;;;;3.75;2.60;;;;;;;;;;5014293;28;20061;-75
2023/07/07 14:00:18;;;;;;;4.30;2.70;;;;;;;;;;5014242;28;20030;-75
2023/07/07 14:02:44;;;;;;;5.32;2.30;;;;;;;;;;5015207;28;20388;-74
2023/07/07 14:05:14;;;;;;;4.13;2.83;;;;;;;;;;5012925;28;20045;-74
2023/07/07 14:07:41;;;;;;;3.60;2.70;;;;;;;;;;5013844;28;20033;-75
2023/07/07 14:10:19;;;;;;;4.05;2.50;;;;;;;;;;5014061;28;20080;-75
2023/07/07 14:12:45;;;;;;;3.83;2.63;;;;;;;;;;5014207;28;20088;-74
2023/07/07 14:15:14;;;;;;;4.57;2.72;;;;;;;;;;5013818;28;20030;-75
2023/07/07 14:17:40;;;;;;;4.73;2.67;;;;;;;;;;5013985;28;20022;-74
2023/07/07 14:20:13;;;;;;;2.85;2.53;;;;;;;;;;5014028;28;20446;-74
2023/07/07 14:22:39;;;;;;;4.65;2.70;;;;;;;;;;5007989;28;20049;-75
2023/07/07 14:25:07;;;;;;;4.78;2.78;;;;;;;;;;5002562;28;20077;-75
2023/07/07 14:27:33;;;;;;;3.42;2.50;;;;;;;;;;5010576;28;20121;-74
2023/07/07 14:29:59;;;;;;;2.95;2.65;;;;;;;;;;4993900;28;20026;-75
2023/07/07 14:32:43;;;;;;;5.38;2.63;;;;;;;;;;4993769;28;20038;-75
2023/07/07 14:35:21;;;;;;;4.07;2.78;;;;;;;;;;4992860;28;20110;-75
2023/07/07 14:37:52;;;;;;;3.70;2.55;;;;;;;;;;5004052;28;20487;-75
2023/07/07 14:40:32;;;;;;;5.25;2.97;;;;;;;;;;5013184;28;20018;-75
2023/07/07 14:43:00;;;;;;;5.53;2.80;;;;;;;;;;5013432;28;20499;-75
2023/07/07 14:45:26;;;;;;;3.75;2.85;;;;;;;;;;5013093;28;20065;-75
2023/07/07 14:47:52;;;;;;;4.40;3.00;;;;;;;;;;5013081;28;20030;-74
2023/07/07 14:50:18;;;;;;;5.50;2.35;;;;;;;;;;5013003;28;20049;-75
2023/07/07 14:52:46;;;;;;;5.57;3.42;;;;;;;;;;5012969;28;20018;-74